Time,TemperatureF,DewpointF,PressureIn,WindDirection,WindDirectionDegrees,WindSpeedMPH,WindSpeedGustMPH,Humidity,HourlyPrecipIn,Conditions,Clouds,dailyrainin,SoftwareType,DateUTC
2015-02-27 00:00:00,11.0,9.0,29.88,North,-99,-99.0,-99.0,90,-99.99,,,-99.99,,2015-02-27 07:00:00,
2015-02-27 00:52:00,11.0,9.0,29.88,North,-99,-99.0,-99.0,90,-99.99,,,-99.99,,2015-02-27 07:52:00,
2015-02-27 01:00:00,11.0,8.0,29.87,North,-99,-99.0,-99.0,88,-99.99,,,-99.99,,2015-02-27 08:00:00,
2015-02-27 01:52:00,11.0,8.0,29.87,North,-99,-99.0,-99.0,88,-99.99,,,-99.99,,2015-02-27 08:52:00,
2015-02-27 02:00:00,11.0,8.0,29.87,North,-99,-99.0,-99.0,87,-99.99,,,-99.99,,2015-02-27 09:00:00,
2015-02-27 02:53:00,11.0,8.0,29.87,North,-99,-99.0,-99.0,87,-99.99,,,-99.99,,2015-02-27 09:53:00,
2015-02-27 03:00:00,11.0,7.0,29.87,North,-99,-99.0,-99.0,85,-99.99,,,-99.99,,2015-02-27 10:00:00,
2015-02-27 03:53:00,11.0,7.0,29.87,North,-99,-99.0,-99.0,85,-99.99,,,-99.99,,2015-02-27 10:53:00,
2015-02-27 04:00:00,8.0,5.0,29.86,North,-99,-99.0,-99.0,88,-99.99,,,-99.99,,2015-02-27 11:00:00,
2015-02-27 04:53:00,8.0,5.0,29.86,North,-99,-99.0,-99.0,88,-99.99,,,-99.99,,2015-02-27 11:53:00,
2015-02-27 05:00:00,10.0,6.0,29.86,North,-99,-99.0,-99.0,84,-99.99,,,-99.99,,2015-02-27 12:00:00,
2015-02-27 05:53:00,10.0,6.0,29.86,North,-99,-99.0,-99.0,84,-99.99,,,-99.99,,2015-02-27 12:53:00,
2015-02-27 06:00:00,8.0,5.0,29.86,North,-99,-99.0,-99.0,87,-99.99,,,-99.99,,2015-02-27 13:00:00,
2015-02-27 06:52:00,8.0,5.0,29.86,North,-99,-99.0,-99.0,87,-99.99,,,-99.99,,2015-02-27 13:52:00,
2015-02-27 07:00:00,10.0,6.0,29.86,North,-99,-99.0,-99.0,84,-99.99,,,-99.99,,2015-02-27 14:00:00,
2015-02-27 07:53:00,10.0,6.0,29.86,North,-99,-99.0,-99.0,84,-99.99,,,-99.99,,2015-02-27 14:53:00,
2015-02-27 08:00:00,11.0,5.0,29.86,North,-99,-99.0,-99.0,76,-99.99,,,-99.99,,2015-02-27 15:00:00,
2015-02-27 08:53:00,11.0,5.0,29.86,North,-99,-99.0,-99.0,76,-99.99,,,-99.99,,2015-02-27 15:53:00,
2015-02-27 09:00:00,17.0,9.0,29.87,North,-99,-99.0,-99.0,68,-99.99,,,-99.99,,2015-02-27 16:00:00,
2015-02-27 09:53:00,17.0,9.0,29.87,North,-99,-99.0,-99.0,68,-99.99,,,-99.99,,2015-02-27 16:53:00,
2015-02-27 10:00:00,22.0,7.0,29.88,North,-99,-99.0,-99.0,53,-99.99,,,-99.99,,2015-02-27 17:00:00,
2015-02-27 10:53:00,22.0,7.0,29.88,North,-99,-99.0,-99.0,53,-99.99,,,-99.99,,2015-02-27 17:53:00,
2015-02-27 11:00:00,17.0,2.0,29.88,North,-99,-99.0,-99.0,51,-99.99,,,-99.99,,2015-02-27 18:00:00,
2015-02-27 11:53:00,17.0,2.0,29.88,North,-99,-99.0,-99.0,51,-99.99,,,-99.99,,2015-02-27 18:53:00,
2015-02-27 12:00:00,24.0,6.0,29.88,North,-99,-99.0,-99.0,45,-99.99,,,-99.99,,2015-02-27 19:00:00,
2015-02-27 12:53:00,24.0,6.0,29.88,North,-99,-99.0,-99.0,45,-99.99,,,-99.99,,2015-02-27 19:53:00,
2015-02-27 13:00:00,17.0,6.0,29.87,North,-99,-99.0,-99.0,59,-99.99,,,-99.99,,2015-02-27 20:00:00,
2015-02-27 13:53:00,17.0,6.0,29.87,North,-99,-99.0,-99.0,59,-99.99,,,-99.99,,2015-02-27 20:53:00,
2015-02-27 14:00:00,16.0,7.0,29.85,North,-99,-99.0,-99.0,65,-99.99,,,-99.99,,2015-02-27 21:00:00,
2015-02-27 14:54:00,16.0,7.0,29.85,North,-99,-99.0,-99.0,65,-99.99,,,-99.99,,2015-02-27 21:54:00,
2015-02-27 15:00:00,15.0,8.0,29.84,North,-99,-99.0,-99.0,73,-99.99,,,-99.99,,2015-02-27 22:00:00,
2015-02-27 15:53:00,15.0,8.0,29.84,North,-99,-99.0,-99.0,73,-99.99,,,-99.99,,2015-02-27 22:53:00,